sensor_id;sensor_type;location;lat;lon;timestamp;pressure;altitude;pressure_sealevel;temperature;humidity
30682;BME280;17439;48.092;11.842;2023-03-26T00:01:16;94988.91;;;9.53;57.75
30682;BME280;17439;48.092;11.842;2023-03-26T00:03:43;94994.22;;;9.58;58.65
30682;BME280;17439;48.092;11.842;2023-03-26T00:06:13;94990.88;;;9.61;57.83
30682;BME280;17439;48.092;11.842;2023-03-26T00:08:42;94991.50;;;9.67;58.56
30682;BME280;17439;48.092;11.842;2023-03-26T00:11:12;94983.53;;;9.70;58.02
30682;BME280;17439;48.092;11.842;2023-03-26T00:13:39;94976.06;;;9.76;58.46
30682;BME280;17439;48.092;11.842;2023-03-26T00:16:06;94977.06;;;9.80;58.12
30682;BME280;17439;48.092;11.842;2023-03-26T00:18:33;94969.88;;;9.84;58.22
30682;BME280;17439;48.092;11.842;2023-03-26T00:21:01;94970.03;;;9.88;58.11
30682;BME280;17439;48.092;11.842;2023-03-26T00:23:29;94954.75;;;9.92;58.19
30682;BME280;17439;48.092;11.842;2023-03-26T00:25:56;94960.63;;;9.94;58.18
30682;BME280;17439;48.092;11.842;2023-03-26T00:28:24;94957.94;;;9.94;57.72
30682;BME280;17439;48.092;11.842;2023-03-26T00:31:03;94956.19;;;9.98;56.72
30682;BME280;17439;48.092;11.842;2023-03-26T00:33:31;94957.13;;;10.02;57.88
30682;BME280;17439;48.092;11.842;2023-03-26T00:35:59;94957.28;;;9.97;57.03
30682;BME280;17439;48.092;11.842;2023-03-26T00:38:29;94947.28;;;9.97;57.22
30682;BME280;17439;48.092;11.842;2023-03-26T00:40:58;94950.63;;;9.94;56.42
30682;BME280;17439;48.092;11.842;2023-03-26T00:43:25;94952.81;;;9.92;57.16
30682;BME280;17439;48.092;11.842;2023-03-26T00:45:53;94952.69;;;9.89;56.78
30682;BME280;17439;48.092;11.842;2023-03-26T00:48:21;94946.47;;;9.88;57.08
30682;BME280;17439;48.092;11.842;2023-03-26T00:50:59;94950.13;;;9.84;56.58
30682;BME280;17439;48.092;11.842;2023-03-26T00:53:26;94946.31;;;9.85;57.00
30682;BME280;17439;48.092;11.842;2023-03-26T00:55:52;94941.53;;;9.82;56.97
30682;BME280;17439;48.092;11.842;2023-03-26T00:58:19;94944.88;;;9.78;56.79
30682;BME280;17439;48.092;11.842;2023-03-26T01:00:50;94951.72;;;9.76;56.20
30682;BME280;17439;48.092;11.842;2023-03-26T01:05:58;94937.53;;;9.70;56.32
30682;BME280;17439;48.092;11.842;2023-03-26T01:11:08;94932.44;;;9.60;55.38
30682;BME280;17439;48.092;11.842;2023-03-26T01:13:37;94934.50;;;9.63;57.38
30682;BME280;17439;48.092;11.842;2023-03-26T01:16:08;94932.44;;;9.60;56.44
30682;BME280;17439;48.092;11.842;2023-03-26T01:18:39;94932.44;;;9.60;57.50
30682;BME280;17439;48.092;11.842;2023-03-26T01:21:07;94931.16;;;9.57;57.15
30682;BME280;17439;48.092;11.842;2023-03-26T01:23:39;94938.63;;;9.52;55.10
30682;BME280;17439;48.092;11.842;2023-03-26T01:26:19;94934.00;;;9.52;56.32
30682;BME280;17439;48.092;11.842;2023-03-26T01:28:54;94945.16;;;9.51;56.75
30682;BME280;17439;48.092;11.842;2023-03-26T01:31:36;94940.53;;;9.51;57.36
30682;BME280;17439;48.092;11.842;2023-03-26T01:34:12;94939.28;;;9.49;57.08
30682;BME280;17439;48.092;11.842;2023-03-26T01:36:52;94930.38;;;9.48;56.93
30682;BME280;17439;48.092;11.842;2023-03-26T01:39:36;94937.03;;;9.51;58.00
30682;BME280;17439;48.092;11.842;2023-03-26T01:42:14;94932.56;;;9.46;57.10
30682;BME280;17439;48.092;11.842;2023-03-26T01:44:53;94928.44;;;9.49;57.14
30682;BME280;17439;48.092;11.842;2023-03-26T01:47:22;94936.88;;;9.47;58.41
30682;BME280;17439;48.092;11.842;2023-03-26T01:49:49;94929.06;;;9.46;58.40
30682;BME280;17439;48.092;11.842;2023-03-26T01:52:21;94925.09;;;9.43;57.47
30682;BME280;17439;48.092;11.842;2023-03-26T01:54:48;94920.81;;;9.42;58.42
30682;BME280;17439;48.092;11.842;2023-03-26T01:57:34;94920.31;;;9.40;56.88
30682;BME280;17439;48.092;11.842;2023-03-26T02:00:29;94913.31;;;9.39;57.29
30682;BME280;17439;48.092;11.842;2023-03-26T02:03:19;94909.94;;;9.33;57.51
30682;BME280;17439;48.092;11.842;2023-03-26T02:06:04;94914.88;;;9.31;57.46
30682;BME280;17439;48.092;11.842;2023-03-26T02:08:51;94905.31;;;9.25;57.25
30682;BME280;17439;48.092;11.842;2023-03-26T02:11:19;94913.44;;;9.25;58.80
30682;BME280;17439;48.092;11.842;2023-03-26T02:13:49;94915.66;;;9.23;58.45
30682;BME280;17439;48.092;11.842;2023-03-26T02:16:18;94904.03;;;9.22;58.43
30682;BME280;17439;48.092;11.842;2023-03-26T02:18:47;94910.56;;;9.21;58.96
30682;BME280;17439;48.092;11.842;2023-03-26T02:21:17;94901.97;;;9.19;59.02
30682;BME280;17439;48.092;11.842;2023-03-26T02:23:47;94903.09;;;9.18;58.87
30682;BME280;17439;48.092;11.842;2023-03-26T02:26:17;94904.50;;;9.16;58.72
30682;BME280;17439;48.092;11.842;2023-03-26T02:29:00;94897.53;;;9.15;59.16
30682;BME280;17439;48.092;11.842;2023-03-26T02:31:27;94890.50;;;9.14;59.40
30682;BME280;17439;48.092;11.842;2023-03-26T02:33:54;94895.13;;;9.13;59.49
30682;BME280;17439;48.092;11.842;2023-03-26T02:36:22;94891.63;;;9.13;59.49
30682;BME280;17439;48.092;11.842;2023-03-26T02:38:50;94881.63;;;9.13;59.80
30682;BME280;17439;48.092;11.842;2023-03-26T02:41:17;94880.31;;;9.11;59.41
30682;BME280;17439;48.092;11.842;2023-03-26T02:43:54;94884.13;;;9.10;59.61
30682;BME280;17439;48.092;11.842;2023-03-26T02:46:27;94876.31;;;9.08;59.72
30682;BME280;17439;48.092;11.842;2023-03-26T02:49:06;94877.16;;;9.08;59.92
30682;BME280;17439;48.092;11.842;2023-03-26T02:51:33;94877.16;;;9.08;60.02
30682;BME280;17439;48.092;11.842;2023-03-26T02:54:03;94872.84;;;9.07;59.83
30682;BME280;17439;48.092;11.842;2023-03-26T02:56:58;94863.13;;;9.06;59.86
30682;BME280;17439;48.092;11.842;2023-03-26T02:59:43;94866.97;;;9.05;59.97
30682;BME280;17439;48.092;11.842;2023-03-26T03:02:39;94867.75;;;9.06;59.94
30682;BME280;17439;48.092;11.842;2023-03-26T03:05:25;94863.13;;;9.06;59.96
30682;BME280;17439;48.092;11.842;2023-03-26T03:08:10;94855.63;;;9.03;59.79
30682;BME280;17439;48.092;11.842;2023-03-26T03:10:59;94853.75;;;9.04;58.64
30682;BME280;17439;48.092;11.842;2023-03-26T03:13:37;94856.94;;;9.06;60.23
30682;BME280;17439;48.092;11.842;2023-03-26T03:16:04;94855.00;;;9.06;60.34
30682;BME280;17439;48.092;11.842;2023-03-26T03:18:31;94839.91;;;9.05;60.19
30682;BME280;17439;48.092;11.842;2023-03-26T03:20:58;94836.41;;;9.05;60.23
30682;BME280;17439;48.092;11.842;2023-03-26T03:23:25;94835.28;;;9.06;60.39
30682;BME280;17439;48.092;11.842;2023-03-26T03:26:02;94839.91;;;9.05;60.31
30682;BME280;17439;48.092;11.842;2023-03-26T03:28:31;94834.50;;;9.05;60.36
30682;BME280;17439;48.092;11.842;2023-03-26T03:30:58;94831.81;;;9.05;60.42
30682;BME280;17439;48.092;11.842;2023-03-26T03:33:29;94828.28;;;9.05;60.61
30682;BME280;17439;48.092;11.842;2023-03-26T03:35:55;94826.72;;;9.04;60.45
30682;BME280;17439;48.092;11.842;2023-03-26T03:38:23;94825.91;;;9.03;60.74
30682;BME280;17439;48.092;11.842;2023-03-26T03:40:51;94821.31;;;9.04;60.53
30682;BME280;17439;48.092;11.842;2023-03-26T03:43:18;94813.50;;;9.02;60.85
30682;BME280;17439;48.092;11.842;2023-03-26T03:46:02;94816.22;;;9.02;60.74
30682;BME280;17439;48.092;11.842;2023-03-26T03:48:34;94828.13;;;9.01;60.79
30682;BME280;17439;48.092;11.842;2023-03-26T03:51:01;94812.69;;;9.02;60.85
30682;BME280;17439;48.092;11.842;2023-03-26T03:53:40;94817.31;;;9.01;60.82
30682;BME280;17439;48.092;11.842;2023-03-26T03:56:08;94818.09;;;8.93;59.13
30682;BME280;17439;48.092;11.842;2023-03-26T03:58:55;94810.66;;;8.99;61.13
30682;BME280;17439;48.092;11.842;2023-03-26T04:01:28;94813.00;;;9.00;61.02
30682;BME280;17439;48.092;11.842;2023-03-26T04:04:05;94804.13;;;9.00;60.97
30682;BME280;17439;48.092;11.842;2023-03-26T04:06:54;94802.19;;;9.00;61.13
30682;BME280;17439;48.092;11.842;2023-03-26T04:09:24;94807.13;;;8.98;61.00
30682;BME280;17439;48.092;11.842;2023-03-26T04:11:55;94812.53;;;8.98;61.25
30682;BME280;17439;48.092;11.842;2023-03-26T04:14:37;94810.16;;;8.97;61.08
30682;BME280;17439;48.092;11.842;2023-03-26T04:17:10;94812.06;;;8.96;61.30
30682;BME280;17439;48.092;11.842;2023-03-26T04:19:37;94812.53;;;8.98;61.27
30682;BME280;17439;48.092;11.842;2023-03-26T04:22:06;94814.13;;;8.99;61.37
30682;BME280;17439;48.092;11.842;2023-03-26T04:24:41;94794.09;;;9.00;61.48
30682;BME280;17439;48.092;11.842;2023-03-26T04:27:29;94784.88;;;9.01;61.26
30682;BME280;17439;48.092;11.842;2023-03-26T04:30:13;94788.03;;;9.03;61.63
30682;BME280;17439;48.092;11.842;2023-03-26T04:32:41;94787.41;;;9.06;61.95
30682;BME280;17439;48.092;11.842;2023-03-26T04:35:13;94778.19;;;9.07;60.93
30682;BME280;17439;48.092;11.842;2023-03-26T04:37:44;94779.16;;;9.12;62.09
30682;BME280;17439;48.092;11.842;2023-03-26T04:40:18;94775.84;;;9.15;61.84
30682;BME280;17439;48.092;11.842;2023-03-26T04:43:02;94770.91;;;9.17;61.27
30682;BME280;17439;48.092;11.842;2023-03-26T04:46:04;94773.75;;;9.20;62.10
30682;BME280;17439;48.092;11.842;2023-03-26T04:48:38;94767.25;;;9.21;62.02
30682;BME280;17439;48.092;11.842;2023-03-26T04:51:07;94781.22;;;9.23;62.10
30682;BME280;17439;48.092;11.842;2023-03-26T04:53:34;94774.41;;;9.26;62.27
30682;BME280;17439;48.092;11.842;2023-03-26T04:56:38;94774.88;;;9.28;62.31
30682;BME280;17439;48.092;11.842;2023-03-26T04:59:19;94765.34;;;9.31;61.79
30682;BME280;17439;48.092;11.842;2023-03-26T05:01:46;94756.56;;;9.34;62.27
30682;BME280;17439;48.092;11.842;2023-03-26T05:04:15;94757.84;;;9.36;62.27
30682;BME280;17439;48.092;11.842;2023-03-26T05:06:42;94752.56;;;9.40;62.46
30682;BME280;17439;48.092;11.842;2023-03-26T05:09:20;94743.34;;;9.41;62.55
30682;BME280;17439;48.092;11.842;2023-03-26T05:12:09;94742.72;;;9.44;62.50
30682;BME280;17439;48.092;11.842;2023-03-26T05:15:05;94744.00;;;9.47;62.68
30682;BME280;17439;48.092;11.842;2023-03-26T05:17:58;94736.81;;;9.51;62.33
30682;BME280;17439;48.092;11.842;2023-03-26T05:20:34;94729.97;;;9.53;62.27
30682;BME280;17439;48.092;11.842;2023-03-26T05:23:04;94729.31;;;9.56;62.25
30682;BME280;17439;48.092;11.842;2023-03-26T05:25:33;94725.97;;;9.59;62.44
30682;BME280;17439;48.092;11.842;2023-03-26T05:28:01;94722.94;;;9.61;62.42
30682;BME280;17439;48.092;11.842;2023-03-26T05:30:35;94725.47;;;9.66;62.50
30682;BME280;17439;48.092;11.842;2023-03-26T05:33:02;94725.47;;;9.66;62.56
30682;BME280;17439;48.092;11.842;2023-03-26T05:35:38;94718.28;;;9.70;62.42
30682;BME280;17439;48.092;11.842;2023-03-26T05:38:07;94712.22;;;9.73;62.45
30682;BME280;17439;48.092;11.842;2023-03-26T05:40:33;94707.00;;;9.77;62.52
30682;BME280;17439;48.092;11.842;2023-03-26T05:43:02;94710.16;;;9.79;62.35
30682;BME280;17439;48.092;11.842;2023-03-26T05:45:46;94706.34;;;9.80;62.17
30682;BME280;17439;48.092;11.842;2023-03-26T05:48:25;94716.53;;;9.83;62.50
30682;BME280;17439;48.092;11.842;2023-03-26T05:50:54;94703.44;;;9.85;62.11
30682;BME280;17439;48.092;11.842;2023-03-26T05:53:25;94696.25;;;9.89;62.59
30682;BME280;17439;48.092;11.842;2023-03-26T05:56:11;94688.28;;;9.93;63.03
30682;BME280;17439;48.092;11.842;2023-03-26T05:58:56;94691.16;;;9.96;62.73
30682;BME280;17439;48.092;11.842;2023-03-26T06:01:41;94691.75;;;10.02;62.80
30682;BME280;17439;48.092;11.842;2023-03-26T06:04:28;94686.50;;;10.06;62.83
30682;BME280;17439;48.092;11.842;2023-03-26T06:07:18;94679.78;;;10.12;62.75
30682;BME280;17439;48.092;11.842;2023-03-26T06:10:01;94677.66;;;10.17;62.86
30682;BME280;17439;48.092;11.842;2023-03-26T06:12:28;94670.47;;;10.22;62.82
30682;BME280;17439;48.092;11.842;2023-03-26T06:14:55;94670.28;;;10.27;62.72
30682;BME280;17439;48.092;11.842;2023-03-26T06:17:31;94665.81;;;10.31;62.53
30682;BME280;17439;48.092;11.842;2023-03-26T06:20:02;94665.19;;;10.34;62.40
30682;BME280;17439;48.092;11.842;2023-03-26T06:22:34;94666.75;;;10.35;62.30
30682;BME280;17439;48.092;11.842;2023-03-26T06:25:19;94670.41;;;10.39;62.33
30682;BME280;17439;48.092;11.842;2023-03-26T06:28:09;94662.41;;;10.43;61.92
30682;BME280;17439;48.092;11.842;2023-03-26T06:30:36;94660.97;;;10.45;61.95
30682;BME280;17439;48.092;11.842;2023-03-26T06:33:15;94659.81;;;10.46;62.25
30682;BME280;17439;48.092;11.842;2023-03-26T06:35:46;94653.75;;;10.49;62.21
30682;BME280;17439;48.092;11.842;2023-03-26T06:38:14;94645.78;;;10.53;62.26
30682;BME280;17439;48.092;11.842;2023-03-26T06:40:41;94639.66;;;10.56;62.35
30682;BME280;17439;48.092;11.842;2023-03-26T06:43:31;94647.47;;;10.58;61.79
30682;BME280;17439;48.092;11.842;2023-03-26T06:46:16;94646.16;;;10.64;62.33
30682;BME280;17439;48.092;11.842;2023-03-26T06:49:12;94624.63;;;10.67;62.55
30682;BME280;17439;48.092;11.842;2023-03-26T06:51:52;94624.88;;;10.75;61.97
30682;BME280;17439;48.092;11.842;2023-03-26T06:54:24;94630.06;;;10.80;61.98
30682;BME280;17439;48.092;11.842;2023-03-26T06:57:00;94625.91;;;10.82;62.11
30682;BME280;17439;48.092;11.842;2023-03-26T06:59:59;94620.28;;;10.87;62.32
30682;BME280;17439;48.092;11.842;2023-03-26T07:02:45;94617.84;;;10.95;62.59
30682;BME280;17439;48.092;11.842;2023-03-26T07:05:30;94624.97;;;10.99;62.41
30682;BME280;17439;48.092;11.842;2023-03-26T07:08:16;94622.06;;;11.04;62.48
30682;BME280;17439;48.092;11.842;2023-03-26T07:11:08;94615.63;;;11.09;62.48
30682;BME280;17439;48.092;11.842;2023-03-26T07:13:53;94611.94;;;11.14;62.33
30682;BME280;17439;48.092;11.842;2023-03-26T07:16:40;94610.91;;;11.18;62.23
30682;BME280;17439;48.092;11.842;2023-03-26T07:19:20;94598.72;;;11.24;62.27
30682;BME280;17439;48.092;11.842;2023-03-26T07:21:47;94595.81;;;11.30;61.82
30682;BME280;17439;48.092;11.842;2023-03-26T07:24:40;94597.84;;;11.33;61.79
30682;BME280;17439;48.092;11.842;2023-03-26T07:30:19;94589.44;;;11.25;59.11
30682;BME280;17439;48.092;11.842;2023-03-26T07:36:34;94580.88;;;11.23;59.62
30682;BME280;17439;48.092;11.842;2023-03-26T07:39:47;94564.25;;;11.25;60.30
30682;BME280;17439;48.092;11.842;2023-03-26T07:42:32;94556.56;;;11.27;61.47
30682;BME280;17439;48.092;11.842;2023-03-26T07:45:29;94547.41;;;11.32;62.65
30682;BME280;17439;48.092;11.842;2023-03-26T07:48:20;94537.91;;;11.38;62.54
30682;BME280;17439;48.092;11.842;2023-03-26T07:51:07;94530.34;;;11.43;63.11
30682;BME280;17439;48.092;11.842;2023-03-26T07:53:49;94508.41;;;11.49;63.12
30682;BME280;17439;48.092;11.842;2023-03-26T07:56:38;94504.00;;;11.44;62.20
30682;BME280;17439;48.092;11.842;2023-03-26T07:59:37;94497.00;;;11.55;62.21
30682;BME280;17439;48.092;11.842;2023-03-26T08:02:34;94499.03;;;11.58;61.84
30682;BME280;17439;48.092;11.842;2023-03-26T08:05:29;94500.59;;;11.59;62.18
30682;BME280;17439;48.092;11.842;2023-03-26T08:12:10;94497.19;;;11.62;62.33
30682;BME280;17439;48.092;11.842;2023-03-26T08:20:10;94479.56;;;11.69;63.86
30682;BME280;17439;48.092;11.842;2023-03-26T08:22:48;94473.09;;;11.73;63.72
30682;BME280;17439;48.092;11.842;2023-03-26T08:25:23;94457.72;;;11.77;64.07
30682;BME280;17439;48.092;11.842;2023-03-26T08:30:49;94428.94;;;11.89;63.99
30682;BME280;17439;48.092;11.842;2023-03-26T08:33:20;94425.69;;;11.95;63.11
30682;BME280;17439;48.092;11.842;2023-03-26T08:35:47;94440.59;;;12.02;64.01
30682;BME280;17439;48.092;11.842;2023-03-26T08:38:16;94440.50;;;11.98;63.21
30682;BME280;17439;48.092;11.842;2023-03-26T08:48:52;94422.63;;;12.25;61.81
30682;BME280;17439;48.092;11.842;2023-03-26T09:00:19;94420.75;;;12.42;60.38
30682;BME280;17439;48.092;11.842;2023-03-26T09:03:22;94416.19;;;12.46;58.93
30682;BME280;17439;48.092;11.842;2023-03-26T09:08:49;94444.09;;;12.59;59.13
30682;BME280;17439;48.092;11.842;2023-03-26T09:15:03;94423.78;;;12.68;58.94
30682;BME280;17439;48.092;11.842;2023-03-26T09:32:07;94410.81;;;12.78;58.61
30682;BME280;17439;48.092;11.842;2023-03-26T09:39:51;94396.03;;;12.79;58.40
30682;BME280;17439;48.092;11.842;2023-03-26T09:53:58;94380.00;;;12.74;59.15
30682;BME280;17439;48.092;11.842;2023-03-26T10:04:54;94338.84;;;12.59;59.69
30682;BME280;17439;48.092;11.842;2023-03-26T10:10:25;94389.88;;;12.50;60.10
30682;BME280;17439;48.092;11.842;2023-03-26T10:16:14;94391.63;;;12.42;59.94
30682;BME280;17439;48.092;11.842;2023-03-26T10:19:01;94374.09;;;12.40;59.37
30682;BME280;17439;48.092;11.842;2023-03-26T10:21:42;94374.09;;;12.40;60.72
30682;BME280;17439;48.092;11.842;2023-03-26T10:24:22;94367.97;;;12.43;61.34
30682;BME280;17439;48.092;11.842;2023-03-26T10:27:22;94361.84;;;12.46;60.96
30682;BME280;17439;48.092;11.842;2023-03-26T10:35:48;94354.91;;;12.48;60.83
30682;BME280;17439;48.092;11.842;2023-03-26T10:41:27;94354.81;;;12.45;61.15
30682;BME280;17439;48.092;11.842;2023-03-26T10:46:55;94361.72;;;12.42;61.13
30682;BME280;17439;48.092;11.842;2023-03-26T10:52:39;94378.75;;;12.39;59.74
30682;BME280;17439;48.092;11.842;2023-03-26T10:55:15;94394.25;;;12.39;61.21
30682;BME280;17439;48.092;11.842;2023-03-26T10:57:58;94392.69;;;12.38;60.84
30682;BME280;17439;48.092;11.842;2023-03-26T11:00:26;94405.03;;;12.35;62.35
30682;BME280;17439;48.092;11.842;2023-03-26T11:03:17;94397.84;;;12.27;61.90
30682;BME280;17439;48.092;11.842;2023-03-26T11:11:32;94380.94;;;12.05;61.44
30682;BME280;17439;48.092;11.842;2023-03-26T11:14:12;94364.09;;;12.00;61.80
30682;BME280;17439;48.092;11.842;2023-03-26T11:23:10;94358.00;;;11.90;62.34
30682;BME280;17439;48.092;11.842;2023-03-26T11:28:36;94339.88;;;11.94;63.48
30682;BME280;17439;48.092;11.842;2023-03-26T11:31:44;94344.41;;;12.03;63.76
30682;BME280;17439;48.092;11.842;2023-03-26T11:34:19;94339.41;;;12.05;64.54
30682;BME280;17439;48.092;11.842;2023-03-26T11:36:53;94315.13;;;12.12;64.56
30682;BME280;17439;48.092;11.842;2023-03-26T11:39:25;94333.91;;;12.17;64.78
30682;BME280;17439;48.092;11.842;2023-03-26T11:42:02;94345.22;;;12.19;64.40
30682;BME280;17439;48.092;11.842;2023-03-26T11:44:46;94346.47;;;12.22;63.17
30682;BME280;17439;48.092;11.842;2023-03-26T11:47:19;94340.22;;;12.21;64.51
30682;BME280;17439;48.092;11.842;2023-03-26T11:49:48;94339.78;;;12.19;64.78
30682;BME280;17439;48.092;11.842;2023-03-26T11:52:17;94346.81;;;12.20;65.01
30682;BME280;17439;48.092;11.842;2023-03-26T11:54:44;94345.66;;;12.21;64.90
30682;BME280;17439;48.092;11.842;2023-03-26T11:57:15;94351.78;;;12.18;64.03
30682;BME280;17439;48.092;11.842;2023-03-26T11:59:54;94331.44;;;12.12;62.60
30682;BME280;17439;48.092;11.842;2023-03-26T12:02:26;94339.66;;;12.00;61.62
30682;BME280;17439;48.092;11.842;2023-03-26T12:07:45;94356.91;;;11.79;61.96
30682;BME280;17439;48.092;11.842;2023-03-26T12:10:29;94353.78;;;11.65;62.39
30682;BME280;17439;48.092;11.842;2023-03-26T12:13:02;94353.13;;;11.55;63.77
30682;BME280;17439;48.092;11.842;2023-03-26T12:15:31;94352.13;;;11.48;64.25
30682;BME280;17439;48.092;11.842;2023-03-26T12:17:59;94346.47;;;11.40;65.02
30682;BME280;17439;48.092;11.842;2023-03-26T12:20:42;94334.66;;;11.33;65.70
30682;BME280;17439;48.092;11.842;2023-03-26T12:26:17;94305.16;;;11.31;66.81
30682;BME280;17439;48.092;11.842;2023-03-26T12:28:49;94309.75;;;11.31;67.69
30682;BME280;17439;48.092;11.842;2023-03-26T12:31:17;94321.19;;;11.36;68.37
30682;BME280;17439;48.092;11.842;2023-03-26T12:34:04;94317.44;;;11.41;67.67
30682;BME280;17439;48.092;11.842;2023-03-26T12:36:32;94316.50;;;11.49;68.94
30682;BME280;17439;48.092;11.842;2023-03-26T12:39:21;94308.22;;;11.58;66.75
30682;BME280;17439;48.092;11.842;2023-03-26T12:42:29;94292.22;;;11.69;66.60
30682;BME280;17439;48.092;11.842;2023-03-26T12:45:42;94288.34;;;11.82;67.62
30682;BME280;17439;48.092;11.842;2023-03-26T12:48:11;94291.66;;;11.91;66.85
30682;BME280;17439;48.092;11.842;2023-03-26T12:54:01;94288.75;;;11.96;63.50
30682;BME280;17439;48.092;11.842;2023-03-26T12:56:35;94281.59;;;12.04;65.17
30682;BME280;17439;48.092;11.842;2023-03-26T12:59:25;94275.09;;;12.09;63.86
30682;BME280;17439;48.092;11.842;2023-03-26T13:02:01;94279.03;;;12.11;64.46
30682;BME280;17439;48.092;11.842;2023-03-26T13:04:56;94273.94;;;12.10;63.71
30682;BME280;17439;48.092;11.842;2023-03-26T13:13:32;94272.91;;;12.14;63.89
30682;BME280;17439;48.092;11.842;2023-03-26T13:16:15;94250.81;;;12.16;63.77
30682;BME280;17439;48.092;11.842;2023-03-26T13:18:53;94256.25;;;12.16;63.29
30682;BME280;17439;48.092;11.842;2023-03-26T13:21:41;94253.19;;;12.18;63.44
30682;BME280;17439;48.092;11.842;2023-03-26T13:27:02;94254.66;;;12.15;62.12
30682;BME280;17439;48.092;11.842;2023-03-26T13:37:57;94257.31;;;12.27;64.28
30682;BME280;17439;48.092;11.842;2023-03-26T13:40:34;94260.47;;;12.29;65.15
30682;BME280;17439;48.092;11.842;2023-03-26T13:43:25;94270.19;;;12.30;64.80
30682;BME280;17439;48.092;11.842;2023-03-26T13:48:37;94259.41;;;12.34;62.82
30682;BME280;17439;48.092;11.842;2023-03-26T13:51:11;94259.88;;;12.36;63.24
30682;BME280;17439;48.092;11.842;2023-03-26T13:53:46;94237.06;;;12.41;64.63
30682;BME280;17439;48.092;11.842;2023-03-26T13:56:18;94249.06;;;12.40;62.20
30682;BME280;17439;48.092;11.842;2023-03-26T13:58:51;94249.06;;;12.40;62.96
30682;BME280;17439;48.092;11.842;2023-03-26T14:01:22;94235.13;;;12.41;63.63
30682;BME280;17439;48.092;11.842;2023-03-26T14:08:55;94226.44;;;12.36;60.72
30682;BME280;17439;48.092;11.842;2023-03-26T14:11:45;94212.09;;;12.35;60.71
30682;BME280;17439;48.092;11.842;2023-03-26T14:14:30;94210.50;;;12.34;60.74
30682;BME280;17439;48.092;11.842;2023-03-26T14:17:05;94211.03;;;12.40;62.16
30682;BME280;17439;48.092;11.842;2023-03-26T14:20:12;94204.09;;;12.42;61.77
30682;BME280;17439;48.092;11.842;2023-03-26T14:25:44;94190.31;;;12.51;61.69
30682;BME280;17439;48.092;11.842;2023-03-26T14:34:10;94195.91;;;12.58;59.52
30682;BME280;17439;48.092;11.842;2023-03-26T14:39:15;94191.34;;;12.62;61.23
30682;BME280;17439;48.092;11.842;2023-03-26T14:41:51;94192.75;;;12.56;59.71
30682;BME280;17439;48.092;11.842;2023-03-26T14:44:45;94202.94;;;12.59;61.24
30682;BME280;17439;48.092;11.842;2023-03-26T14:47:20;94184.19;;;12.54;61.92
30682;BME280;17439;48.092;11.842;2023-03-26T14:50:11;94181.03;;;12.52;61.11
30682;BME280;17439;48.092;11.842;2023-03-26T14:52:50;94182.16;;;12.51;61.11
30682;BME280;17439;48.092;11.842;2023-03-26T15:01:24;94178.56;;;12.47;59.79
30682;BME280;17439;48.092;11.842;2023-03-26T15:10:10;94163.31;;;12.42;60.37
30682;BME280;17439;48.092;11.842;2023-03-26T15:15:55;94160.81;;;12.33;58.28
30682;BME280;17439;48.092;11.842;2023-03-26T15:21:40;94164.03;;;12.23;58.32
30682;BME280;17439;48.092;11.842;2023-03-26T15:38:41;94149.69;;;12.07;60.15
30682;BME280;17439;48.092;11.842;2023-03-26T15:41:24;94150.47;;;12.07;60.05
30682;BME280;17439;48.092;11.842;2023-03-26T15:47:20;94145.50;;;12.09;59.45
30682;BME280;17439;48.092;11.842;2023-03-26T15:49:54;94151.00;;;12.13;60.33
30682;BME280;17439;48.092;11.842;2023-03-26T15:52:32;94140.13;;;12.13;60.20
30682;BME280;17439;48.092;11.842;2023-03-26T15:58:09;94140.91;;;12.13;59.80
30682;BME280;17439;48.092;11.842;2023-03-26T16:00:52;94142.84;;;12.13;59.58
30682;BME280;17439;48.092;11.842;2023-03-26T16:03:28;94147.94;;;12.14;60.06
30682;BME280;17439;48.092;11.842;2023-03-26T16:12:26;94157.84;;;12.07;58.73
30682;BME280;17439;48.092;11.842;2023-03-26T16:15:31;94162.66;;;11.97;55.95
30682;BME280;17439;48.092;11.842;2023-03-26T16:29:10;94147.38;;;11.61;52.33
30682;BME280;17439;48.092;11.842;2023-03-26T16:34:39;94161.97;;;11.40;53.73
30682;BME280;17439;48.092;11.842;2023-03-26T16:45:54;94129.50;;;11.00;53.35
30682;BME280;17439;48.092;11.842;2023-03-26T16:54:08;94110.81;;;10.82;55.66
30682;BME280;17439;48.092;11.842;2023-03-26T16:56:43;94105.38;;;10.82;56.50
30682;BME280;17439;48.092;11.842;2023-03-26T17:02:32;94114.47;;;10.74;56.31
30682;BME280;17439;48.092;11.842;2023-03-26T17:07:50;94121.59;;;10.66;55.11
30682;BME280;17439;48.092;11.842;2023-03-26T17:10:31;94121.16;;;10.64;54.70
30682;BME280;17439;48.092;11.842;2023-03-26T17:13:14;94119.56;;;10.63;55.06
30682;BME280;17439;48.092;11.842;2023-03-26T17:19:01;94110.31;;;10.64;55.87
30682;BME280;17439;48.092;11.842;2023-03-26T17:30:41;94116.69;;;10.44;55.09
30682;BME280;17439;48.092;11.842;2023-03-26T17:41:09;94125.16;;;10.42;55.87
30682;BME280;17439;48.092;11.842;2023-03-26T17:46:32;94144.34;;;10.37;56.48
30682;BME280;17439;48.092;11.842;2023-03-26T17:54:24;94158.09;;;10.20;55.13
30682;BME280;17439;48.092;11.842;2023-03-26T17:56:54;94178.41;;;10.26;57.69
30682;BME280;17439;48.092;11.842;2023-03-26T17:59:24;94177.72;;;10.29;58.00
30682;BME280;17439;48.092;11.842;2023-03-26T18:01:55;94185.84;;;10.29;57.77
30682;BME280;17439;48.092;11.842;2023-03-26T18:04:35;94192.75;;;10.26;57.39
30682;BME280;17439;48.092;11.842;2023-03-26T18:10:26;94211.13;;;10.21;57.33
30682;BME280;17439;48.092;11.842;2023-03-26T18:20:58;94229.41;;;10.11;58.34
30682;BME280;17439;48.092;11.842;2023-03-26T18:23:35;94227.16;;;10.13;58.42
30682;BME280;17439;48.092;11.842;2023-03-26T18:26:15;94240.13;;;10.08;58.41
30682;BME280;17439;48.092;11.842;2023-03-26T18:29:14;94231.91;;;10.04;57.90
30682;BME280;17439;48.092;11.842;2023-03-26T18:31:47;94244.06;;;9.98;58.55
30682;BME280;17439;48.092;11.842;2023-03-26T18:34:15;94229.38;;;9.87;58.20